createdAt,value
2023-04-10T00:03:09.565Z,2.43
2023-04-10T00:06:11.930Z,2.44
2023-04-10T00:09:14.179Z,2.46
2023-04-10T00:12:16.284Z,2.46
2023-04-10T00:15:18.353Z,2.45
2023-04-10T00:22:18.815Z,2.41
2023-04-10T00:25:23.124Z,2.31
2023-04-10T00:28:25.461Z,2.30
2023-04-10T00:31:27.877Z,2.27
2023-04-10T00:34:30.021Z,2.25
2023-04-10T00:37:32.148Z,2.21
2023-04-10T00:40:34.450Z,2.15
2023-04-10T00:43:36.937Z,2.09
2023-04-10T00:46:40.534Z,2.03
2023-04-10T00:49:52.192Z,2.01
2023-04-10T00:52:54.474Z,2.03
2023-04-10T00:55:57.567Z,2.00
2023-04-10T00:58:59.996Z,1.96
2023-04-10T01:02:02.941Z,1.94
2023-04-10T01:05:06.312Z,1.92
2023-04-10T01:08:31.020Z,1.90
2023-04-10T01:11:42.378Z,1.89
2023-04-10T01:15:04.799Z,1.92
2023-04-10T01:21:50.091Z,1.98
2023-04-10T01:25:23.112Z,1.97
2023-04-10T01:28:31.905Z,1.94
2023-04-10T01:31:42.728Z,1.92
2023-04-10T01:34:52.134Z,1.88
2023-04-10T01:37:55.596Z,1.88
2023-04-10T01:40:59.938Z,1.85
2023-04-10T01:44:04.642Z,1.83
2023-04-10T01:47:07.486Z,1.84
2023-04-10T01:50:11.712Z,1.80
2023-04-10T01:53:14.949Z,1.78
2023-04-10T01:56:18.713Z,1.77
2023-04-10T01:59:21.270Z,1.78
2023-04-10T02:02:23.710Z,1.74
2023-04-10T02:05:34.447Z,1.69
2023-04-10T02:09:22.106Z,1.64
2023-04-10T02:12:31.032Z,1.58
2023-04-10T02:16:32.953Z,1.53
2023-04-10T02:19:37.479Z,1.46
2023-04-10T02:22:44.138Z,1.43
2023-04-10T02:29:23.574Z,1.32
2023-04-10T02:32:25.852Z,1.25
2023-04-10T02:35:29.383Z,1.19
2023-04-10T02:38:31.563Z,1.16
2023-04-10T02:41:35.064Z,0.89
2023-04-10T02:44:37.069Z,1.10
2023-04-10T02:47:51.210Z,1.06
2023-04-10T02:51:00.002Z,1.10
2023-04-10T02:54:02.041Z,1.22
2023-04-10T03:01:00.795Z,1.43
2023-04-10T03:04:04.192Z,1.38
2023-04-10T03:07:06.400Z,1.31
2023-04-10T03:10:09.057Z,1.26
2023-04-10T03:13:11.675Z,1.17
2023-04-10T03:16:13.789Z,1.09
2023-04-10T03:19:16.472Z,0.99
2023-04-10T03:22:18.528Z,1.05
2023-04-10T03:25:21.046Z,1.05
2023-04-10T03:28:24.038Z,1.04
2023-04-10T03:31:26.358Z,1.01
2023-04-10T03:34:28.407Z,0.94
2023-04-10T03:37:30.451Z,0.86
2023-04-10T03:40:34.415Z,0.79
2023-04-10T03:43:36.486Z,0.78
2023-04-10T03:46:38.784Z,0.74
2023-04-10T03:49:40.985Z,0.81
2023-04-10T03:52:43.134Z,0.75
2023-04-10T03:55:45.189Z,0.69
2023-04-10T03:58:47.420Z,0.64
2023-04-10T04:01:49.598Z,0.59
2023-04-10T04:04:51.828Z,0.53
2023-04-10T04:07:53.992Z,0.50
2023-04-10T04:10:56.147Z,0.45
2023-04-10T04:13:58.335Z,0.40
2023-04-10T04:17:00.399Z,0.34
2023-04-10T04:20:02.672Z,0.32
2023-04-10T04:23:04.738Z,0.31
2023-04-10T04:26:06.986Z,0.33
2023-04-10T04:29:09.166Z,0.33
2023-04-10T04:32:11.526Z,0.37
2023-04-10T04:35:13.671Z,0.39
2023-04-10T04:38:16.960Z,0.34
2023-04-10T04:41:20.624Z,0.29
2023-04-10T04:44:23.223Z,0.21
2023-04-10T04:47:25.569Z,0.09
2023-04-10T04:50:27.870Z,0.05
2023-04-10T04:53:30.222Z,0.01
2023-04-10T04:56:32.243Z,-0.05
2023-04-10T04:59:34.494Z,-0.13
2023-04-10T05:02:41.492Z,-0.12
2023-04-10T05:05:44.009Z,-0.09
2023-04-10T05:08:46.322Z,-0.04
2023-04-10T05:15:26.676Z,0.05
2023-04-10T05:22:06.899Z,0.24
2023-04-10T05:25:09.386Z,0.47
2023-04-10T05:28:11.700Z,0.58
2023-04-10T05:31:13.875Z,0.76
2023-04-10T05:38:12.834Z,1.66
2023-04-10T05:41:49.280Z,2.12
2023-04-10T05:48:09.302Z,2.64
2023-04-10T05:51:11.357Z,2.67
2023-04-10T05:54:13.425Z,2.89
2023-04-10T05:57:16.179Z,3.12
2023-04-10T06:00:19.787Z,3.26
2023-04-10T06:03:22.576Z,3.44
2023-04-10T06:06:26.371Z,3.89
2023-04-10T06:09:28.520Z,4.17
2023-04-10T06:12:30.758Z,4.41
2023-04-10T06:15:32.818Z,4.62
2023-04-10T06:18:35.092Z,4.75
2023-04-10T06:21:37.331Z,4.95
2023-04-10T06:24:39.448Z,5.35
2023-04-10T06:27:41.623Z,5.52
2023-04-10T06:30:44.880Z,6.12
2023-04-10T06:33:48.146Z,6.40
2023-04-10T06:36:50.156Z,6.84
2023-04-10T06:39:52.182Z,7.16
2023-04-10T06:42:54.310Z,7.57
2023-04-10T06:45:56.313Z,7.40
2023-04-10T06:48:58.495Z,8.15
2023-04-10T06:52:00.579Z,8.41
2023-04-10T06:55:02.724Z,8.57
2023-04-10T06:58:04.881Z,8.88
2023-04-10T07:01:07.310Z,9.26
2023-04-10T07:04:09.946Z,9.45
2023-04-10T07:07:13.607Z,9.88
2023-04-10T07:10:15.840Z,9.00
2023-04-10T07:13:18.133Z,8.76
2023-04-10T07:16:20.162Z,8.48
2023-04-10T07:19:22.299Z,9.14
2023-04-10T07:22:24.371Z,8.69
2023-04-10T07:25:26.614Z,9.42
2023-04-10T07:28:28.796Z,9.43
2023-04-10T07:31:31.046Z,9.37
2023-04-10T07:34:33.297Z,9.44
2023-04-10T07:37:35.501Z,9.68
2023-04-10T07:40:37.837Z,9.59
2023-04-10T07:43:39.996Z,9.83
2023-04-10T07:46:42.100Z,10.12
2023-04-10T07:49:44.338Z,10.61
2023-04-10T07:52:46.570Z,10.87
2023-04-10T07:55:50.416Z,11.01
2023-04-10T07:58:52.808Z,10.78
2023-04-10T08:01:55.687Z,11.08
2023-04-10T08:04:58.054Z,11.31
2023-04-10T08:08:00.464Z,11.97
2023-04-10T08:11:03.295Z,11.33
2023-04-10T08:14:07.244Z,11.34
2023-04-10T08:17:14.832Z,11.94
2023-04-10T08:20:17.485Z,12.04
2023-04-10T08:24:34.666Z,11.82
2023-04-10T08:27:37.620Z,12.23
2023-04-10T08:30:39.878Z,12.86
2023-04-10T08:33:41.979Z,12.89
2023-04-10T08:36:43.993Z,13.19
2023-04-10T08:39:46.253Z,13.33
2023-04-10T08:42:48.380Z,14.16
2023-04-10T08:45:52.748Z,13.42
2023-04-10T08:49:04.463Z,13.81
2023-04-10T08:52:14.699Z,14.94
2023-04-10T08:55:17.317Z,14.29
2023-04-10T08:58:19.577Z,15.61
2023-04-10T09:01:22.187Z,16.40
2023-04-10T09:04:25.616Z,16.02
2023-04-10T09:19:05.047Z,15.17
2023-04-10T09:22:08.353Z,14.78
2023-04-10T09:29:08.178Z,13.94
2023-04-10T09:32:11.141Z,15.96
2023-04-10T09:35:15.291Z,15.10
2023-04-10T09:42:37.235Z,14.39
2023-04-10T09:49:46.580Z,14.91
2023-04-10T09:52:58.082Z,13.31
2023-04-10T09:56:00.951Z,13.28
2023-04-10T09:59:04.932Z,14.84
2023-04-10T10:02:07.838Z,15.77
2023-04-10T10:05:11.326Z,15.09
2023-04-10T10:08:14.713Z,16.06
2023-04-10T10:11:23.423Z,15.62
2023-04-10T10:18:39.036Z,17.05
2023-04-10T10:21:44.370Z,16.18
2023-04-10T10:24:47.634Z,16.23
2023-04-10T10:27:52.697Z,16.42
2023-04-10T10:30:55.734Z,15.76
2023-04-10T10:33:58.224Z,15.21
2023-04-10T10:37:00.858Z,16.00
2023-04-10T10:40:25.804Z,18.36
2023-04-10T10:43:46.464Z,18.10
2023-04-10T10:46:52.378Z,18.11
2023-04-10T10:49:57.109Z,18.19
2023-04-10T10:53:01.292Z,19.41
2023-04-10T10:56:18.398Z,19.78
2023-04-10T10:59:46.443Z,19.59
2023-04-10T11:03:13.297Z,20.64
2023-04-10T11:06:20.505Z,20.58
2023-04-10T11:09:49.618Z,18.33
2023-04-10T11:13:18.038Z,16.99
2023-04-10T11:16:21.687Z,16.90
2023-04-10T11:19:26.444Z,16.26
2023-04-10T11:22:29.082Z,15.99
2023-04-10T11:25:51.547Z,15.27
2023-04-10T11:28:53.823Z,14.96
2023-04-10T11:32:01.744Z,14.91
2023-04-10T11:35:05.112Z,14.68
2023-04-10T11:38:16.362Z,16.48
2023-04-10T11:41:18.442Z,17.16
2023-04-10T11:44:35.559Z,16.19
2023-04-10T11:47:39.629Z,15.27
2023-04-10T11:50:41.870Z,14.56
2023-04-10T11:53:44.134Z,14.65
2023-04-10T11:56:58.072Z,14.45
2023-04-10T12:00:00.413Z,14.13
2023-04-10T12:03:02.743Z,16.52
2023-04-10T12:06:13.307Z,17.83
2023-04-10T12:09:17.433Z,19.15
2023-04-10T12:12:20.762Z,19.02
2023-04-10T12:15:27.416Z,17.26
2023-04-10T12:18:30.904Z,16.47
2023-04-10T12:21:36.173Z,15.80
2023-04-10T12:24:45.138Z,14.98
2023-04-10T12:27:51.153Z,15.00
2023-04-10T12:30:53.694Z,17.03
2023-04-10T12:33:58.864Z,18.72
2023-04-10T12:37:01.081Z,18.26
2023-04-10T12:40:07.676Z,17.53
2023-04-10T12:43:09.975Z,16.50
2023-04-10T12:46:26.566Z,15.50
2023-04-10T12:49:29.003Z,15.85
2023-04-10T12:52:31.444Z,17.76
2023-04-10T12:55:33.880Z,19.19
2023-04-10T12:58:37.148Z,19.39
2023-04-10T13:01:39.732Z,17.78
2023-04-10T13:04:42.117Z,16.94
2023-04-10T13:07:44.259Z,16.13
2023-04-10T13:10:46.329Z,17.22
2023-04-10T13:13:48.693Z,18.05
2023-04-10T13:16:50.872Z,18.52
2023-04-10T13:19:53.477Z,19.01
2023-04-10T13:22:55.728Z,18.16
2023-04-10T13:25:59.198Z,17.85
2023-04-10T13:29:01.174Z,17.16
2023-04-10T13:32:05.580Z,16.47
2023-04-10T13:35:08.386Z,16.51
2023-04-10T13:38:11.965Z,16.38
2023-04-10T13:41:14.096Z,16.46
2023-04-10T13:44:16.286Z,16.94
2023-04-10T13:47:18.309Z,18.10
2023-04-10T13:50:20.996Z,18.14
2023-04-10T13:53:23.068Z,17.59
2023-04-10T13:56:25.172Z,16.99
2023-04-10T13:59:27.239Z,16.99
2023-04-10T14:02:29.493Z,16.62
2023-04-10T14:05:31.834Z,16.04
2023-04-10T14:08:33.907Z,15.63
2023-04-10T14:11:38.946Z,15.49
2023-04-10T14:14:41.061Z,14.89
2023-04-10T14:17:43.215Z,14.86
2023-04-10T14:20:45.559Z,14.68
2023-04-10T14:23:48.230Z,14.43
2023-04-10T14:26:52.245Z,14.76
2023-04-10T14:29:55.468Z,14.33
2023-04-10T14:32:57.873Z,14.08
2023-04-10T14:36:00.220Z,13.84
2023-04-10T14:39:02.604Z,13.99
2023-04-10T14:42:06.243Z,13.85
2023-04-10T14:45:10.802Z,13.73
2023-04-10T14:48:13.456Z,14.31
2023-04-10T14:51:24.928Z,15.26
2023-04-10T14:54:27.158Z,16.02
2023-04-10T14:57:29.852Z,16.21
2023-04-10T15:00:32.745Z,17.38
2023-04-10T15:03:34.853Z,17.48
2023-04-10T15:06:37.112Z,16.81
2023-04-10T15:09:40.690Z,15.65
2023-04-10T15:12:42.822Z,15.32
2023-04-10T15:15:45.617Z,14.72
2023-04-10T15:18:49.446Z,14.91
2023-04-10T15:21:51.629Z,14.63
2023-04-10T15:24:53.843Z,14.93
2023-04-10T15:27:56.416Z,14.80
2023-04-10T15:30:58.801Z,14.84
2023-04-10T15:34:00.898Z,15.51
2023-04-10T15:37:02.963Z,15.82
2023-04-10T15:40:06.475Z,15.96
2023-04-10T15:43:08.850Z,15.62
2023-04-10T15:46:11.262Z,15.75
2023-04-10T15:49:16.397Z,15.76
2023-04-10T15:52:22.553Z,15.40
2023-04-10T15:55:24.666Z,15.10
2023-04-10T15:58:27.473Z,14.91
2023-04-10T16:01:29.807Z,14.65
2023-04-10T16:04:32.220Z,14.47
2023-04-10T16:07:38.227Z,14.29
2023-04-10T16:10:40.460Z,14.10
2023-04-10T16:13:44.865Z,14.14
2023-04-10T16:16:47.249Z,14.14
2023-04-10T16:19:49.387Z,14.08
2023-04-10T16:22:51.892Z,13.96
2023-04-10T16:25:53.926Z,13.92
2023-04-10T16:28:56.588Z,13.84
2023-04-10T16:31:59.092Z,13.69
2023-04-10T16:35:01.166Z,13.65
2023-04-10T16:38:03.217Z,13.44
2023-04-10T16:41:06.440Z,13.30
2023-04-10T16:44:08.644Z,13.24
2023-04-10T16:47:10.746Z,13.12
2023-04-10T16:50:12.866Z,13.01
2023-04-10T16:53:16.847Z,12.95
2023-04-10T16:56:18.957Z,12.89
2023-04-10T16:59:21.096Z,12.83
2023-04-10T17:02:25.274Z,12.75
2023-04-10T17:05:35.612Z,12.62
2023-04-10T17:08:37.741Z,12.53
2023-04-10T17:11:39.826Z,12.50
2023-04-10T17:14:41.881Z,12.47
2023-04-10T17:17:44.020Z,12.26
2023-04-10T17:20:48.228Z,12.14
2023-04-10T17:23:50.584Z,12.02
2023-04-10T17:26:52.773Z,11.86
2023-04-10T17:29:55.320Z,11.66
2023-04-10T17:32:57.550Z,11.56
2023-04-10T17:35:59.637Z,11.38
2023-04-10T17:39:01.923Z,11.24
2023-04-10T17:42:04.017Z,11.03
2023-04-10T17:45:07.117Z,10.90
2023-04-10T17:48:10.580Z,10.74
2023-04-10T17:51:13.089Z,10.62
2023-04-10T17:54:15.275Z,10.53
2023-04-10T17:57:17.455Z,10.45
2023-04-10T18:00:21.620Z,10.38
2023-04-10T18:03:23.809Z,10.30
2023-04-10T18:06:26.841Z,10.18
2023-04-10T18:09:29.340Z,10.07
2023-04-10T18:12:32.876Z,9.95
2023-04-10T18:15:34.918Z,9.82
2023-04-10T18:18:37.446Z,9.75
2023-04-10T18:21:42.381Z,9.69
2023-04-10T18:24:49.074Z,9.62
2023-04-10T18:28:12.935Z,9.53
2023-04-10T18:31:16.846Z,9.42
2023-04-10T18:34:19.392Z,9.23
2023-04-10T18:37:22.909Z,9.15
2023-04-10T18:40:25.840Z,9.03
2023-04-10T18:43:28.102Z,8.97
2023-04-10T18:46:31.778Z,8.91
2023-04-10T18:49:34.292Z,8.86
2023-04-10T18:52:36.656Z,8.74
2023-04-10T18:55:38.823Z,8.67
2023-04-10T18:58:41.652Z,8.60
2023-04-10T19:01:44.546Z,8.54
2023-04-10T19:04:47.225Z,8.47
2023-04-10T19:08:00.597Z,8.40
2023-04-10T19:11:08.407Z,8.31
2023-04-10T19:14:10.987Z,8.21
2023-04-10T19:17:15.544Z,8.12
2023-04-10T19:20:18.767Z,8.07
2023-04-10T19:23:41.331Z,7.99
2023-04-10T19:26:44.031Z,7.90
2023-04-10T19:29:46.471Z,7.86
2023-04-10T19:32:48.931Z,7.80
2023-04-10T19:35:51.359Z,7.76
2023-04-10T19:38:53.868Z,7.67
2023-04-10T19:41:57.757Z,7.59
2023-04-10T19:45:00.247Z,7.56
2023-04-10T19:51:19.845Z,7.47
2023-04-10T19:54:22.959Z,7.36
2023-04-10T19:57:25.038Z,7.22
2023-04-10T20:00:27.830Z,7.11
2023-04-10T20:03:31.684Z,7.06
2023-04-10T20:06:33.832Z,6.98
2023-04-10T20:09:36.365Z,6.88
2023-04-10T20:12:38.600Z,6.81
2023-04-10T20:15:40.766Z,6.73
2023-04-10T20:18:42.878Z,6.68
2023-04-10T20:21:45.006Z,6.60
2023-04-10T20:24:47.115Z,6.47
2023-04-10T20:27:49.328Z,6.40
2023-04-10T20:30:51.589Z,6.32
2023-04-10T20:33:56.489Z,6.34
2023-04-10T20:36:59.436Z,6.28
2023-04-10T20:40:01.533Z,6.27
2023-04-10T20:43:03.890Z,6.13
2023-04-10T20:46:09.252Z,6.10
2023-04-10T20:49:16.011Z,6.08
2023-04-10T20:52:18.024Z,6.01
2023-04-10T20:55:20.069Z,5.97
2023-04-10T20:58:23.130Z,5.96
2023-04-10T21:01:25.768Z,5.95
2023-04-10T21:04:28.222Z,5.93
2023-04-10T21:07:30.400Z,5.88
2023-04-10T21:10:32.557Z,5.80
2023-04-10T21:13:36.474Z,5.81
2023-04-10T21:17:15.122Z,5.71
2023-04-10T21:20:17.264Z,5.65
2023-04-10T21:23:19.485Z,5.60
2023-04-10T21:26:21.565Z,5.53
2023-04-10T21:29:24.256Z,5.45
2023-04-10T21:32:26.635Z,5.45
2023-04-10T21:35:28.772Z,5.42
2023-04-10T21:38:31.159Z,5.36
2023-04-10T21:41:33.269Z,5.26
2023-04-10T21:44:35.292Z,5.22
2023-04-10T21:47:37.686Z,5.22
2023-04-10T21:50:40.662Z,5.20
2023-04-10T21:53:42.671Z,5.12
2023-04-10T21:56:44.752Z,5.06
2023-04-10T21:59:46.752Z,5.05
2023-04-10T22:02:50.326Z,5.00
2023-04-10T22:05:52.755Z,4.93
2023-04-10T22:08:55.170Z,4.84
2023-04-10T22:11:57.571Z,4.76
2023-04-10T22:14:59.596Z,4.72
2023-04-10T22:18:01.723Z,4.70
2023-04-10T22:21:04.060Z,4.57
2023-04-10T22:24:06.478Z,4.49
2023-04-10T22:27:08.684Z,4.50
2023-04-10T22:30:11.321Z,4.45
2023-04-10T22:33:14.011Z,4.40
2023-04-10T22:36:15.986Z,4.38
2023-04-10T22:39:18.112Z,4.34
2023-04-10T22:42:20.149Z,4.34
2023-04-10T22:45:22.290Z,4.31
2023-04-10T22:48:24.454Z,4.26
2023-04-10T22:51:26.961Z,4.21
2023-04-10T22:54:29.775Z,4.08
2023-04-10T22:57:31.953Z,4.14
2023-04-10T23:00:34.752Z,4.11
2023-04-10T23:03:37.195Z,4.08
2023-04-10T23:06:39.395Z,4.04
2023-04-10T23:09:41.409Z,4.02
2023-04-10T23:12:43.483Z,3.91
2023-04-10T23:15:52.831Z,3.87
2023-04-10T23:18:55.174Z,3.89
2023-04-10T23:21:57.377Z,3.94
2023-04-10T23:24:59.757Z,3.99
2023-04-10T23:28:01.787Z,4.01
2023-04-10T23:31:03.993Z,4.03
2023-04-10T23:34:06.263Z,4.00
2023-04-10T23:37:08.952Z,4.02
2023-04-10T23:40:11.648Z,3.93
2023-04-10T23:43:13.985Z,3.89
2023-04-10T23:46:16.212Z,3.82
2023-04-10T23:49:19.046Z,3.76
2023-04-10T23:52:21.663Z,3.72
2023-04-10T23:55:23.790Z,3.68
2023-04-10T23:58:26.549Z,3.67
